createdAt,value
2019-03-21T00:01:25.390Z,101501.00
2019-03-21T00:03:58.170Z,101501.00
2019-03-21T00:06:27.695Z,101499.00
2019-03-21T00:08:57.261Z,101508.00
2019-03-21T00:11:55.665Z,101506.00
2019-03-21T00:14:32.441Z,101490.00
2019-03-21T00:17:04.313Z,101491.00
2019-03-21T00:19:33.609Z,101476.00
2019-03-21T00:22:02.910Z,101475.00
2019-03-21T00:24:32.411Z,101475.00
2019-03-21T00:27:01.817Z,101480.00
2019-03-21T00:29:31.123Z,101479.00
2019-03-21T00:32:00.619Z,101482.00
2019-03-21T00:34:30.161Z,101475.00
2019-03-21T00:36:59.436Z,101469.00
2019-03-21T00:39:32.803Z,101477.00
2019-03-21T00:41:59.473Z,101486.00
2019-03-21T00:44:28.870Z,101474.00
2019-03-21T00:46:58.178Z,101481.00
2019-03-21T00:49:27.480Z,101483.00
2019-03-21T00:51:57.140Z,101486.00
2019-03-21T00:54:26.600Z,101483.00
2019-03-21T00:56:55.786Z,101478.00
2019-03-21T00:59:25.325Z,101467.00
2019-03-21T01:01:54.796Z,101474.00
2019-03-21T01:04:26.923Z,101473.00
2019-03-21T01:06:56.486Z,101466.00
2019-03-21T01:09:25.886Z,101469.00
2019-03-21T01:11:55.382Z,101464.00
2019-03-21T01:14:29.663Z,101469.00
2019-03-21T01:16:55.889Z,101469.00
2019-03-21T01:19:25.343Z,101465.00
2019-03-21T01:21:54.861Z,101463.00
2019-03-21T01:24:45.043Z,101461.00
2019-03-21T01:27:14.446Z,101457.00
2019-03-21T01:29:44.352Z,101457.00
2019-03-21T01:32:14.022Z,101459.00
2019-03-21T01:34:43.473Z,101449.00
2019-03-21T01:37:12.779Z,101447.00
2019-03-21T01:39:42.086Z,101445.00
2019-03-21T01:42:11.282Z,101449.00
2019-03-21T01:44:41.418Z,101446.00
2019-03-21T01:47:11.214Z,101439.00
2019-03-21T01:49:40.625Z,101435.00
2019-03-21T01:52:10.219Z,101431.00
2019-03-21T01:54:39.429Z,101428.00
2019-03-21T01:57:08.831Z,101423.00
2019-03-21T01:59:38.331Z,101423.00
2019-03-21T02:02:07.743Z,101426.00
2019-03-21T02:04:36.943Z,101425.00
2019-03-21T02:07:06.438Z,101420.00
2019-03-21T02:09:35.947Z,101419.00
2019-03-21T02:12:05.356Z,101415.00
2019-03-21T02:14:34.657Z,101414.00
2019-03-21T02:17:04.482Z,101410.00
2019-03-21T02:19:33.670Z,101413.00
2019-03-21T02:22:03.080Z,101418.00
2019-03-21T02:24:32.574Z,101408.00
2019-03-21T02:27:03.790Z,101399.00
2019-03-21T02:29:33.018Z,101407.00
2019-03-21T02:32:02.960Z,101401.00
2019-03-21T02:34:32.448Z,101408.00
2019-03-21T02:37:01.852Z,101400.00
2019-03-21T02:39:31.243Z,101411.00
2019-03-21T02:42:00.664Z,101411.00
2019-03-21T02:44:29.971Z,101405.00
2019-03-21T02:46:59.465Z,101394.00
2019-03-21T02:49:28.874Z,101399.00
2019-03-21T02:51:58.279Z,101402.00
2019-03-21T02:54:27.667Z,101396.00
2019-03-21T02:56:56.981Z,101399.00
2019-03-21T02:59:26.186Z,101404.00
2019-03-21T03:01:55.674Z,101408.00
2019-03-21T03:04:25.204Z,101410.00
2019-03-21T03:06:54.406Z,101411.00
2019-03-21T03:09:23.695Z,101401.00
2019-03-21T03:11:53.192Z,101409.00
2019-03-21T03:14:22.400Z,101405.00
2019-03-21T03:16:51.897Z,101409.00
2019-03-21T03:19:22.237Z,101415.00
2019-03-21T03:22:05.006Z,101413.00
2019-03-21T03:24:34.686Z,101407.00
2019-03-21T03:27:04.372Z,101408.00
2019-03-21T03:29:33.867Z,101419.00
2019-03-21T03:32:03.613Z,101415.00
2019-03-21T03:34:32.999Z,101410.00
2019-03-21T03:37:02.492Z,101408.00
2019-03-21T03:39:31.996Z,101410.00
2019-03-21T03:42:01.210Z,101414.00
2019-03-21T03:44:30.714Z,101409.00
2019-03-21T03:46:59.914Z,101409.00
2019-03-21T03:49:29.109Z,101407.00
2019-03-21T03:51:58.909Z,101414.00
2019-03-21T03:54:28.430Z,101413.00
2019-03-21T03:56:57.831Z,101409.00
2019-03-21T03:59:27.329Z,101416.00
2019-03-21T04:01:56.837Z,101415.00
2019-03-21T04:04:26.453Z,101419.00
2019-03-21T04:06:58.824Z,101418.00
2019-03-21T04:09:28.424Z,101418.00
2019-03-21T04:11:57.838Z,101423.00
2019-03-21T04:14:27.245Z,101427.00
2019-03-21T04:16:56.750Z,101418.00
2019-03-21T04:19:26.065Z,101425.00
2019-03-21T04:21:55.576Z,101418.00
2019-03-21T04:24:25.167Z,101416.00
2019-03-21T04:26:54.663Z,101412.00
2019-03-21T04:29:24.377Z,101409.00
2019-03-21T04:31:53.931Z,101418.00
2019-03-21T04:34:23.968Z,101417.00
2019-03-21T04:36:53.513Z,101421.00
2019-03-21T04:39:23.219Z,101408.00
2019-03-21T04:41:52.633Z,101411.00
2019-03-21T04:44:22.855Z,101413.00
2019-03-21T04:46:52.263Z,101412.00
2019-03-21T04:49:22.064Z,101417.00
2019-03-21T04:51:51.674Z,101418.00
2019-03-21T04:54:20.894Z,101424.00
2019-03-21T04:56:50.080Z,101420.00
2019-03-21T04:59:19.899Z,101431.00
2019-03-21T05:01:58.513Z,101440.00
2019-03-21T05:04:28.014Z,101436.00
2019-03-21T05:06:57.219Z,101428.00
2019-03-21T05:09:26.418Z,101437.00
2019-03-21T05:11:55.910Z,101432.00
2019-03-21T05:14:25.224Z,101431.00
2019-03-21T05:17:17.357Z,101432.00
2019-03-21T05:19:46.563Z,101434.00
2019-03-21T05:22:16.061Z,101431.00
2019-03-21T05:24:45.368Z,101437.00
2019-03-21T05:27:16.812Z,101439.00
2019-03-21T05:29:48.362Z,101448.00
2019-03-21T05:32:17.984Z,101443.00
2019-03-21T05:34:47.287Z,101449.00
2019-03-21T05:37:16.781Z,101450.00
2019-03-21T05:39:46.295Z,101455.00
2019-03-21T05:42:16.114Z,101456.00
2019-03-21T05:44:45.917Z,101468.00
2019-03-21T05:47:15.420Z,101462.00
2019-03-21T05:49:44.632Z,101464.00
2019-03-21T05:52:14.035Z,101469.00
2019-03-21T05:54:43.567Z,101468.00
2019-03-21T05:57:13.046Z,101475.00
2019-03-21T05:59:42.353Z,101471.00
2019-03-21T06:02:11.845Z,101470.00
2019-03-21T06:04:41.260Z,101482.00
2019-03-21T06:07:16.429Z,101486.00
2019-03-21T06:09:46.097Z,101494.00
2019-03-21T06:12:15.518Z,101492.00
2019-03-21T06:14:58.333Z,101490.00
2019-03-21T06:17:28.342Z,101504.00
2019-03-21T06:20:06.376Z,101501.00
2019-03-21T06:22:58.419Z,101495.00
2019-03-21T06:26:03.952Z,101498.00
2019-03-21T06:28:33.568Z,101505.00
2019-03-21T06:31:02.962Z,101508.00
2019-03-21T06:33:32.367Z,101523.00
2019-03-21T06:36:02.898Z,101523.00
2019-03-21T06:38:32.405Z,101526.00
2019-03-21T06:41:03.944Z,101521.00
2019-03-21T06:43:33.359Z,101526.00
2019-03-21T06:46:02.861Z,101526.00
2019-03-21T06:48:32.169Z,101534.00
2019-03-21T06:51:01.366Z,101532.00
2019-03-21T06:53:30.665Z,101528.00
2019-03-21T06:55:59.965Z,101532.00
2019-03-21T06:58:29.216Z,101517.00
2019-03-21T07:00:58.553Z,101530.00
2019-03-21T07:03:28.176Z,101530.00
2019-03-21T07:05:57.486Z,101530.00
2019-03-21T07:08:27.350Z,101532.00
2019-03-21T07:10:58.404Z,101542.00
2019-03-21T07:13:28.044Z,101543.00
2019-03-21T07:15:57.345Z,101537.00
2019-03-21T07:18:26.733Z,101530.00
2019-03-21T07:20:56.050Z,101539.00
2019-03-21T07:23:25.250Z,101536.00
2019-03-21T07:25:54.850Z,101538.00
2019-03-21T07:28:24.160Z,101531.00
2019-03-21T07:30:53.359Z,101538.00
2019-03-21T07:33:22.858Z,101542.00
2019-03-21T07:35:52.068Z,101546.00
2019-03-21T07:38:21.568Z,101541.00
2019-03-21T07:40:51.076Z,101544.00
2019-03-21T07:43:22.271Z,101546.00
2019-03-21T07:45:51.521Z,101534.00
2019-03-21T07:48:20.824Z,101540.00
2019-03-21T07:50:50.327Z,101548.00
2019-03-21T07:53:22.143Z,101543.00
2019-03-21T07:55:51.388Z,101551.00
2019-03-21T07:58:20.592Z,101555.00
2019-03-21T08:00:49.990Z,101545.00
2019-03-21T08:03:19.300Z,101554.00
2019-03-21T08:05:48.811Z,101549.00
2019-03-21T08:08:19.833Z,101553.00
2019-03-21T08:10:49.149Z,101552.00
2019-03-21T08:13:18.646Z,101554.00
2019-03-21T08:15:47.954Z,101551.00
2019-03-21T08:18:17.156Z,101556.00
2019-03-21T08:20:56.113Z,101554.00
2019-03-21T08:23:17.600Z,101546.00
2019-03-21T08:25:47.138Z,101557.00
2019-03-21T08:28:16.657Z,101562.00
2019-03-21T08:31:09.258Z,101565.00
2019-03-21T08:33:38.762Z,101561.00
2019-03-21T08:36:08.279Z,101565.00
2019-03-21T08:38:37.582Z,101570.00
2019-03-21T08:41:06.778Z,101578.00
2019-03-21T08:43:36.188Z,101575.00
2019-03-21T08:46:05.788Z,101577.00
2019-03-21T08:48:34.987Z,101587.00
2019-03-21T08:51:08.502Z,101579.00
2019-03-21T08:53:35.325Z,101584.00
2019-03-21T08:56:04.938Z,101576.00
2019-03-21T08:58:34.138Z,101582.00
2019-03-21T09:01:03.647Z,101579.00
2019-03-21T09:03:33.155Z,101570.00
2019-03-21T09:06:02.457Z,101575.00
2019-03-21T09:08:32.067Z,101573.00
2019-03-21T09:11:01.364Z,101571.00
2019-03-21T09:13:30.874Z,101572.00
2019-03-21T09:16:00.152Z,101564.00
2019-03-21T09:18:29.669Z,101568.00
2019-03-21T09:20:58.979Z,101567.00
2019-03-21T09:23:28.282Z,101573.00
2019-03-21T09:25:57.685Z,101576.00
2019-03-21T09:28:26.992Z,101566.00
2019-03-21T09:30:56.794Z,101569.00
2019-03-21T09:33:26.294Z,101558.00
2019-03-21T09:35:55.822Z,101562.00
2019-03-21T09:38:25.115Z,101562.00
2019-03-21T09:40:54.625Z,101567.00
2019-03-21T09:43:23.928Z,101565.00
2019-03-21T09:45:53.325Z,101567.00
2019-03-21T09:48:22.628Z,101566.00
2019-03-21T09:50:52.635Z,101564.00
2019-03-21T09:53:22.054Z,101572.00
2019-03-21T09:55:51.349Z,101570.00
2019-03-21T09:58:20.551Z,101573.00
2019-03-21T10:00:49.951Z,101576.00
2019-03-21T10:03:19.353Z,101570.00
2019-03-21T10:05:48.857Z,101570.00
2019-03-21T10:08:18.373Z,101566.00
2019-03-21T10:10:47.979Z,101565.00
2019-03-21T10:13:17.476Z,101562.00
2019-03-21T10:15:47.087Z,101566.00
2019-03-21T10:18:16.295Z,101563.00
2019-03-21T10:20:45.601Z,101565.00
2019-03-21T10:23:14.793Z,101564.00
2019-03-21T10:25:44.097Z,101556.00
2019-03-21T10:28:13.604Z,101554.00
2019-03-21T10:30:43.920Z,101547.00
2019-03-21T10:33:14.686Z,101557.00
2019-03-21T10:35:44.171Z,101550.00
2019-03-21T10:38:13.804Z,101558.00
2019-03-21T10:40:43.791Z,101566.00
2019-03-21T10:43:13.290Z,101558.00
2019-03-21T10:45:42.603Z,101557.00
2019-03-21T10:48:12.010Z,101560.00
2019-03-21T10:50:41.821Z,101547.00
2019-03-21T10:53:11.368Z,101549.00
2019-03-21T10:55:40.629Z,101538.00
2019-03-21T10:58:10.330Z,101544.00
2019-03-21T11:00:40.369Z,101533.00
2019-03-21T11:03:10.086Z,101535.00
2019-03-21T11:05:39.683Z,101532.00
2019-03-21T11:08:08.878Z,101542.00
2019-03-21T11:10:38.179Z,101535.00
2019-03-21T11:13:07.583Z,101524.00
2019-03-21T11:15:37.207Z,101523.00
2019-03-21T11:18:08.751Z,101534.00
2019-03-21T11:20:39.931Z,101534.00
2019-03-21T11:23:10.630Z,101530.00
2019-03-21T11:25:40.356Z,101522.00
2019-03-21T11:28:10.251Z,101519.00
2019-03-21T11:30:41.521Z,101520.00
2019-03-21T11:33:11.115Z,101504.00
2019-03-21T11:35:41.777Z,101503.00
2019-03-21T11:38:11.556Z,101504.00
2019-03-21T11:40:42.292Z,101498.00
2019-03-21T11:43:11.893Z,101498.00
2019-03-21T11:45:41.424Z,101503.00
2019-03-21T11:48:10.998Z,101494.00
2019-03-21T11:50:40.323Z,101492.00
2019-03-21T11:53:09.814Z,101488.00
2019-03-21T11:55:39.360Z,101486.00
2019-03-21T11:58:08.933Z,101486.00
2019-03-21T12:00:44.052Z,101481.00
2019-03-21T12:03:09.687Z,101478.00
2019-03-21T12:05:39.194Z,101485.00
2019-03-21T12:08:08.808Z,101476.00
2019-03-21T12:10:38.213Z,101478.00
2019-03-21T12:13:26.893Z,101471.00
2019-03-21T12:15:56.116Z,101475.00
2019-03-21T12:18:25.704Z,101466.00
2019-03-21T12:20:55.203Z,101473.00
2019-03-21T12:23:24.685Z,101474.00
2019-03-21T12:25:54.180Z,101466.00
2019-03-21T12:28:23.730Z,101465.00
2019-03-21T12:30:53.409Z,101460.00
2019-03-21T12:33:22.815Z,101463.00
2019-03-21T12:35:52.320Z,101454.00
2019-03-21T12:38:22.263Z,101450.00
2019-03-21T12:40:58.392Z,101447.00
2019-03-21T12:43:27.805Z,101452.00
2019-03-21T12:45:57.107Z,101444.00
2019-03-21T12:48:26.510Z,101439.00
2019-03-21T12:50:56.011Z,101433.00
2019-03-21T12:53:25.317Z,101435.00
2019-03-21T12:55:54.965Z,101434.00
2019-03-21T12:58:24.525Z,101422.00
2019-03-21T13:00:54.132Z,101413.00
2019-03-21T13:03:23.546Z,101420.00
2019-03-21T13:05:53.046Z,101410.00
2019-03-21T13:08:33.390Z,101412.00
2019-03-21T13:10:53.499Z,101415.00
2019-03-21T13:13:22.996Z,101413.00
2019-03-21T13:15:52.305Z,101410.00
2019-03-21T13:18:21.711Z,101414.00
2019-03-21T13:20:51.210Z,101410.00
2019-03-21T13:23:20.524Z,101407.00
2019-03-21T13:25:49.930Z,101403.00
2019-03-21T13:28:19.430Z,101397.00
2019-03-21T13:30:48.759Z,101387.00
2019-03-21T13:33:18.272Z,101393.00
2019-03-21T13:35:47.735Z,101391.00
2019-03-21T13:38:17.279Z,101386.00
2019-03-21T13:40:46.534Z,101384.00
2019-03-21T13:43:16.153Z,101383.00
2019-03-21T13:45:45.669Z,101382.00
2019-03-21T13:48:15.183Z,101379.00
2019-03-21T13:50:44.371Z,101383.00
2019-03-21T13:53:18.707Z,101383.00
2019-03-21T13:55:44.390Z,101387.00
2019-03-21T13:58:16.480Z,101368.00
2019-03-21T14:00:45.978Z,101369.00
2019-03-21T14:03:24.683Z,101369.00
2019-03-21T14:05:46.530Z,101365.00
2019-03-21T14:08:16.035Z,101355.00
2019-03-21T14:10:46.243Z,101351.00
2019-03-21T14:13:15.875Z,101344.00
2019-03-21T14:15:47.010Z,101350.00
2019-03-21T14:18:16.210Z,101356.00
2019-03-21T14:20:45.716Z,101344.00
2019-03-21T14:23:17.183Z,101345.00
2019-03-21T14:25:46.181Z,101340.00
2019-03-21T14:28:15.464Z,101337.00
2019-03-21T14:30:45.077Z,101337.00
2019-03-21T14:33:14.380Z,101339.00
2019-03-21T14:35:43.888Z,101338.00
2019-03-21T14:38:25.364Z,101339.00
2019-03-21T14:40:44.833Z,101346.00
2019-03-21T14:43:14.793Z,101334.00
2019-03-21T14:45:47.336Z,101328.00
2019-03-21T14:48:16.737Z,101331.00
2019-03-21T14:50:45.940Z,101333.00
2019-03-21T14:53:15.340Z,101334.00
2019-03-21T14:55:47.673Z,101334.00
2019-03-21T14:58:16.096Z,101326.00
2019-03-21T15:00:46.660Z,101332.00
2019-03-21T15:03:15.930Z,101331.00
2019-03-21T15:05:45.448Z,101334.00
2019-03-21T15:08:26.513Z,101323.00
2019-03-21T15:10:56.120Z,101326.00
2019-03-21T15:13:25.387Z,101326.00
2019-03-21T15:15:55.248Z,101328.00
2019-03-21T15:18:24.433Z,101324.00
2019-03-21T15:20:54.259Z,101329.00
2019-03-21T15:23:25.863Z,101325.00
2019-03-21T15:25:54.820Z,101331.00
2019-03-21T15:28:24.393Z,101332.00
2019-03-21T15:30:53.718Z,101317.00
2019-03-21T15:33:22.932Z,101313.00
2019-03-21T15:35:52.437Z,101320.00
2019-03-21T15:38:23.145Z,101315.00
2019-03-21T15:40:52.856Z,101319.00
2019-03-21T15:43:26.155Z,101321.00
2019-03-21T15:45:55.751Z,101314.00
2019-03-21T15:48:25.165Z,101311.00
2019-03-21T15:51:03.890Z,101311.00
2019-03-21T15:53:26.532Z,101304.00
2019-03-21T15:55:56.168Z,101309.00
2019-03-21T15:58:25.648Z,101305.00
2019-03-21T16:00:55.635Z,101307.00
2019-03-21T16:03:25.065Z,101309.00
2019-03-21T16:05:54.378Z,101306.00
2019-03-21T16:08:23.673Z,101309.00
2019-03-21T16:10:53.077Z,101304.00
2019-03-21T16:13:22.883Z,101311.00
2019-03-21T16:15:52.505Z,101305.00
2019-03-21T16:18:21.792Z,101305.00
2019-03-21T16:20:51.299Z,101301.00
2019-03-21T16:23:20.926Z,101293.00
2019-03-21T16:25:50.103Z,101303.00
2019-03-21T16:28:20.257Z,101293.00
2019-03-21T16:30:50.069Z,101288.00
2019-03-21T16:33:19.647Z,101288.00
2019-03-21T16:35:49.168Z,101291.00
2019-03-21T16:38:19.798Z,101294.00
2019-03-21T16:40:49.300Z,101295.00
2019-03-21T16:43:19.746Z,101305.00
2019-03-21T16:45:49.357Z,101298.00
2019-03-21T16:48:18.846Z,101296.00
2019-03-21T16:50:48.255Z,101297.00
2019-03-21T16:53:17.776Z,101296.00
2019-03-21T16:55:47.470Z,101292.00
2019-03-21T16:58:16.872Z,101291.00
2019-03-21T17:00:46.386Z,101294.00
2019-03-21T17:03:15.680Z,101297.00
2019-03-21T17:05:44.889Z,101300.00
2019-03-21T17:08:14.587Z,101302.00
2019-03-21T17:10:44.155Z,101305.00
2019-03-21T17:13:13.545Z,101293.00
2019-03-21T17:15:42.805Z,101290.00
2019-03-21T17:18:12.308Z,101292.00
2019-03-21T17:20:41.812Z,101297.00
2019-03-21T17:23:11.127Z,101294.00
2019-03-21T17:25:40.543Z,101303.00
2019-03-21T17:28:10.232Z,101296.00
2019-03-21T17:30:39.535Z,101295.00
2019-03-21T17:33:09.071Z,101305.00
2019-03-21T17:35:38.342Z,101301.00
2019-03-21T17:38:07.774Z,101300.00
2019-03-21T17:40:37.152Z,101296.00
2019-03-21T17:43:06.759Z,101302.00
2019-03-21T17:45:36.469Z,101298.00
2019-03-21T17:48:05.876Z,101303.00
2019-03-21T17:50:37.005Z,101306.00
2019-03-21T17:53:06.319Z,101301.00
2019-03-21T17:55:36.430Z,101295.00
2019-03-21T17:58:07.071Z,101308.00
2019-03-21T18:00:37.192Z,101302.00
2019-03-21T18:03:07.302Z,101307.00
2019-03-21T18:05:37.074Z,101319.00
2019-03-21T18:08:06.945Z,101322.00
2019-03-21T18:10:36.345Z,101321.00
2019-03-21T18:13:05.850Z,101311.00
2019-03-21T18:15:35.157Z,101316.00
2019-03-21T18:18:04.645Z,101318.00
2019-03-21T18:20:33.858Z,101322.00
2019-03-21T18:23:03.373Z,101321.00
2019-03-21T18:25:32.771Z,101321.00
2019-03-21T18:28:02.180Z,101325.00
2019-03-21T18:30:46.732Z,101323.00
2019-03-21T18:33:19.097Z,101321.00
2019-03-21T18:35:50.249Z,101327.00
2019-03-21T18:38:19.789Z,101332.00
2019-03-21T18:40:50.114Z,101335.00
2019-03-21T18:43:19.490Z,101336.00
2019-03-21T18:45:48.998Z,101331.00
2019-03-21T18:48:18.903Z,101332.00
2019-03-21T18:50:48.421Z,101334.00
2019-03-21T18:53:18.472Z,101329.00
2019-03-21T18:55:48.045Z,101333.00
2019-03-21T18:58:17.561Z,101328.00
2019-03-21T19:00:46.940Z,101329.00
2019-03-21T19:03:17.765Z,101324.00
2019-03-21T19:05:47.300Z,101321.00
2019-03-21T19:08:16.703Z,101324.00
2019-03-21T19:10:47.744Z,101334.00
2019-03-21T19:13:17.253Z,101333.00
2019-03-21T19:15:47.087Z,101330.00
2019-03-21T19:18:16.405Z,101328.00
2019-03-21T19:20:45.511Z,101324.00
2019-03-21T19:23:15.777Z,101321.00
2019-03-21T19:25:45.600Z,101326.00
2019-03-21T19:28:17.238Z,101328.00
2019-03-21T19:30:52.281Z,101330.00
2019-03-21T19:33:22.952Z,101328.00
2019-03-21T19:35:53.661Z,101331.00
2019-03-21T19:38:25.533Z,101326.00
2019-03-21T19:41:05.269Z,101326.00
2019-03-21T19:43:41.748Z,101320.00
2019-03-21T19:46:11.355Z,101320.00
2019-03-21T19:48:49.793Z,101327.00
2019-03-21T19:51:11.791Z,101319.00
2019-03-21T19:53:44.780Z,101321.00
2019-03-21T19:56:14.299Z,101328.00
2019-03-21T19:58:43.681Z,101325.00
2019-03-21T20:01:14.223Z,101322.00
2019-03-21T20:03:44.927Z,101316.00
2019-03-21T20:06:14.455Z,101317.00
2019-03-21T20:08:43.966Z,101325.00
2019-03-21T20:11:13.273Z,101323.00
2019-03-21T20:13:42.570Z,101328.00
2019-03-21T20:16:11.976Z,101325.00
2019-03-21T20:18:41.278Z,101333.00
2019-03-21T20:21:10.512Z,101324.00
2019-03-21T20:23:39.977Z,101326.00
2019-03-21T20:26:09.228Z,101324.00
2019-03-21T20:28:38.595Z,101317.00
2019-03-21T20:31:07.887Z,101324.00
2019-03-21T20:33:37.302Z,101326.00
2019-03-21T20:36:21.133Z,101330.00
2019-03-21T20:38:50.627Z,101323.00
2019-03-21T20:41:20.045Z,101322.00
2019-03-21T20:43:49.538Z,101321.00
2019-03-21T20:46:18.955Z,101321.00
2019-03-21T20:48:46.824Z,101321.00
2019-03-21T20:51:16.112Z,101313.00
2019-03-21T20:53:45.645Z,101314.00
2019-03-21T20:56:15.143Z,101317.00
2019-03-21T20:58:44.444Z,101316.00
2019-03-21T21:01:14.045Z,101307.00
2019-03-21T21:03:43.443Z,101311.00
2019-03-21T21:06:15.003Z,101310.00
2019-03-21T21:08:44.209Z,101315.00
2019-03-21T21:11:13.717Z,101317.00
2019-03-21T21:13:45.065Z,101319.00
2019-03-21T21:16:18.461Z,101321.00
2019-03-21T21:18:47.662Z,101317.00
2019-03-21T21:21:17.165Z,101322.00
2019-03-21T21:23:47.491Z,101326.00
2019-03-21T21:26:21.911Z,101311.00
2019-03-21T21:28:51.216Z,101322.00
2019-03-21T21:31:20.720Z,101324.00
2019-03-21T21:33:50.128Z,101320.00
2019-03-21T21:36:22.151Z,101323.00
2019-03-21T21:38:50.873Z,101330.00
2019-03-21T21:41:20.387Z,101329.00
2019-03-21T21:43:49.685Z,101333.00
2019-03-21T21:46:18.886Z,101317.00
2019-03-21T21:48:48.681Z,101316.00
2019-03-21T21:51:17.999Z,101306.00
2019-03-21T21:53:58.261Z,101316.00
2019-03-21T21:56:27.459Z,101312.00
2019-03-21T21:58:56.759Z,101314.00
2019-03-21T22:01:26.458Z,101311.00
2019-03-21T22:04:04.526Z,101319.00
2019-03-21T22:06:26.610Z,101313.00
2019-03-21T22:08:55.806Z,101318.00
2019-03-21T22:11:25.202Z,101327.00
2019-03-21T22:13:54.715Z,101322.00
2019-03-21T22:16:23.916Z,101320.00
2019-03-21T22:18:53.526Z,101320.00
2019-03-21T22:21:23.029Z,101328.00
2019-03-21T22:24:06.040Z,101325.00
2019-03-21T22:26:43.445Z,101331.00
2019-03-21T22:29:14.891Z,101331.00
2019-03-21T22:31:44.096Z,101327.00
2019-03-21T22:34:13.478Z,101326.00
2019-03-21T22:36:49.413Z,101328.00
2019-03-21T22:39:13.746Z,101330.00
2019-03-21T22:41:43.239Z,101330.00
2019-03-21T22:44:12.458Z,101331.00
2019-03-21T22:46:41.749Z,101338.00
2019-03-21T22:49:11.049Z,101331.00
2019-03-21T22:51:40.581Z,101312.00
2019-03-21T22:54:10.007Z,101315.00
2019-03-21T22:56:41.582Z,101320.00
2019-03-21T22:59:10.402Z,101309.00
2019-03-21T23:01:40.002Z,101310.00
2019-03-21T23:04:09.512Z,101318.00
2019-03-21T23:06:38.722Z,101318.00
2019-03-21T23:09:08.528Z,101316.00
2019-03-21T23:11:37.837Z,101317.00
2019-03-21T23:14:07.137Z,101316.00
2019-03-21T23:16:36.546Z,101311.00
2019-03-21T23:19:06.252Z,101322.00
2019-03-21T23:21:35.556Z,101318.00
2019-03-21T23:24:04.856Z,101322.00
2019-03-21T23:26:34.158Z,101321.00
2019-03-21T23:29:03.561Z,101312.00
2019-03-21T23:31:38.815Z,101310.00
2019-03-21T23:34:08.209Z,101312.00
2019-03-21T23:36:37.403Z,101306.00
2019-03-21T23:39:07.304Z,101294.00
2019-03-21T23:41:36.523Z,101298.00
2019-03-21T23:44:05.820Z,101295.00
2019-03-21T23:46:35.326Z,101301.00
2019-03-21T23:49:04.924Z,101296.00
2019-03-21T23:51:34.238Z,101287.00
2019-03-21T23:54:03.435Z,101294.00
2019-03-21T23:56:32.738Z,101293.00
2019-03-21T23:59:02.142Z,101298.00
